Time;durP1;ratioP1;P1;durP2;ratioP2;P2;SDS_P1;SDS_P2;PMS_P1;PMS_P2;Temp;Humidity;BMP_temperature;BMP_pressure;BME280_temperature;BME280_humidity;BME280_pressure;Samples;Min_cycle;Max_cycle;Signal;HPM_P1;HPM_P2
2021/07/24 00:00:05;;;;;;;9.45;7.68;;;21.80;77.70;;;;;;5116657;28;20028;-71
2021/07/24 00:02:30;;;;;;;8.25;6.88;;;21.80;77.60;;;;;;5116490;28;20032;-71
2021/07/24 00:04:56;;;;;;;8.57;7.20;;;21.80;77.50;;;;;;5116878;28;20103;-71
2021/07/24 00:07:21;;;;;;;14.45;7.57;;;21.80;77.70;;;;;;5116883;28;20023;-71
2021/07/24 00:09:47;;;;;;;9.45;7.35;;;21.80;77.70;;;;;;5117555;28;20068;-71
2021/07/24 00:12:13;;;;;;;9.30;6.65;;;21.90;77.90;;;;;;5120683;28;20057;-71
2021/07/24 00:14:39;;;;;;;8.82;7.25;;;21.90;78.20;;;;;;5120788;28;20066;-71
2021/07/24 00:17:05;;;;;;;9.32;7.15;;;22.00;78.30;;;;;;5120649;28;20058;-71
2021/07/24 00:19:31;;;;;;;12.25;7.55;;;22.00;78.80;;;;;;5120799;28;20027;-71
2021/07/24 00:21:56;;;;;;;8.85;6.70;;;21.90;79.40;;;;;;5120498;28;20061;-71
2021/07/24 00:24:22;;;;;;;10.02;7.10;;;22.00;80.00;;;;;;5120463;28;20403;-71
2021/07/24 00:26:48;;;;;;;11.20;7.47;;;22.00;80.30;;;;;;5120420;28;20430;-71
2021/07/24 00:29:15;;;;;;;15.85;8.52;;;21.90;80.90;;;;;;5120046;28;20020;-71
2021/07/24 00:31:41;;;;;;;9.10;7.13;;;21.90;81.00;;;;;;5120021;28;20077;-71
2021/07/24 00:34:07;;;;;;;12.60;7.78;;;21.90;81.10;;;;;;5120266;28;20046;-71
2021/07/24 00:36:33;;;;;;;10.18;7.00;;;21.90;81.20;;;;;;5120189;28;20400;-71
2021/07/24 00:38:59;;;;;;;9.18;7.10;;;21.90;81.20;;;;;;5120184;28;20024;-71
2021/07/24 00:41:31;;;;;;;10.20;7.20;;;21.90;82.10;;;;;;5120083;28;20027;-71
2021/07/24 00:44:00;;;;;;;8.95;7.13;;;21.90;81.80;;;;;;5119996;28;20103;-71
2021/07/24 00:46:31;;;;;;;11.15;7.78;;;21.90;81.80;;;;;;5119965;28;20040;-71
2021/07/24 00:48:59;;;;;;;10.32;6.50;;;21.90;81.50;;;;;;5119992;28;20030;-71
2021/07/24 00:51:28;;;;;;;12.48;6.57;;;21.80;81.30;;;;;;5119932;28;20031;-71
2021/07/24 00:53:55;;;;;;;10.80;6.30;;;21.70;80.70;;;;;;5119910;28;20036;-71
2021/07/24 00:56:24;;;;;;;10.18;5.80;;;21.60;80.70;;;;;;5119557;28;20484;-71
2021/07/24 00:58:49;;;;;;;11.05;6.63;;;21.60;81.00;;;;;;5119494;28;20088;-70
2021/07/24 01:01:15;;;;;;;10.50;6.70;;;21.70;80.70;;;;;;5119370;28;20027;-71
2021/07/24 01:03:41;;;;;;;11.38;7.70;;;21.70;80.80;;;;;;5119733;28;20103;-71
2021/07/24 01:06:06;;;;;;;14.80;6.47;;;21.70;80.70;;;;;;5119629;28;20023;-70
2021/07/24 01:08:35;;;;;;;10.50;6.75;;;21.70;80.60;;;;;;5119287;28;20028;-71
2021/07/24 01:11:03;;;;;;;13.20;6.43;;;21.70;81.00;;;;;;5119239;28;20028;-71
2021/07/24 01:13:29;;;;;;;8.35;5.82;;;21.70;80.70;;;;;;5119347;28;20063;-71
2021/07/24 01:15:55;;;;;;;9.77;6.90;;;21.70;80.50;;;;;;5119158;28;20035;-71
2021/07/24 01:18:21;;;;;;;10.15;6.82;;;21.70;80.20;;;;;;5119138;28;20107;-71
2021/07/24 01:20:49;;;;;;;9.52;6.13;;;21.80;79.90;;;;;;5119295;28;20099;-71
2021/07/24 01:23:17;;;;;;;8.05;6.65;;;21.90;79.70;;;;;;5118520;28;20023;-71
2021/07/24 01:25:48;;;;;;;10.75;6.38;;;21.80;80.50;;;;;;5118975;28;20491;-71
2021/07/24 01:28:22;;;;;;;9.18;7.22;;;21.90;80.80;;;;;;5118926;28;20028;-71
2021/07/24 01:30:47;;;;;;;8.82;6.88;;;21.80;80.60;;;;;;5119197;28;20022;-71
2021/07/24 01:33:13;;;;;;;13.40;7.68;;;21.90;80.40;;;;;;5119146;28;20386;-71
2021/07/24 01:35:48;;;;;;;8.40;7.35;;;21.90;80.80;;;;;;5119043;28;20020;-71
2021/07/24 01:38:15;;;;;;;12.95;7.22;;;21.90;80.60;;;;;;5119113;28;20362;-71
2021/07/24 01:40:41;;;;;;;9.30;6.88;;;22.00;80.60;;;;;;5118671;28;20023;-71
2021/07/24 01:43:06;;;;;;;10.38;6.90;;;22.00;80.30;;;;;;5118811;28;20089;-71
2021/07/24 01:45:33;;;;;;;13.73;7.32;;;22.10;80.20;;;;;;5118377;28;20138;-71
2021/07/24 01:48:00;;;;;;;10.98;7.43;;;22.10;80.70;;;;;;5118566;28;20475;-71
2021/07/24 01:53:11;;;;;;;9.93;7.55;;;22.30;80.30;;;;;;5119065;28;20089;-71
2021/07/24 01:55:37;;;;;;;10.68;6.80;;;22.40;80.30;;;;;;5118379;28;20043;-71
2021/07/24 01:58:04;;;;;;;9.07;7.05;;;22.40;80.00;;;;;;5118638;28;20028;-71
2021/07/24 02:00:34;;;;;;;10.05;7.18;;;22.40;80.50;;;;;;5118590;28;20054;-71
2021/07/24 02:03:06;;;;;;;8.70;6.97;;;22.30;80.80;;;;;;5100106;28;20024;-71
2021/07/24 02:05:38;;;;;;;8.50;7.20;;;22.20;81.10;;;;;;5118419;28;20053;-71
2021/07/24 02:08:06;;;;;;;10.60;7.55;;;22.00;81.90;;;;;;5118538;28;20027;-71
2021/07/24 02:10:33;;;;;;;9.25;7.28;;;22.00;82.00;;;;;;5118458;28;20094;-71
2021/07/24 02:13:02;;;;;;;9.52;7.57;;;22.00;81.30;;;;;;5118331;28;20027;-71
2021/07/24 02:15:27;;;;;;;11.30;6.95;;;22.00;80.90;;;;;;5118435;28;20035;-71
2021/07/24 02:17:53;;;;;;;13.38;7.72;;;22.10;80.80;;;;;;5118259;28;20035;-70
2021/07/24 02:20:22;;;;;;;12.32;7.30;;;22.00;81.50;;;;;;5117894;28;20411;-71
2021/07/24 02:22:48;;;;;;;10.07;7.88;;;21.90;82.00;;;;;;5118134;28;20046;-71
2021/07/24 02:25:13;;;;;;;14.27;8.60;;;21.90;82.20;;;;;;5117860;28;20051;-71
2021/07/24 02:27:50;;;;;;;10.65;7.57;;;21.80;82.60;;;;;;5118009;28;20029;-71
2021/07/24 02:30:16;;;;;;;10.05;8.70;;;21.80;82.90;;;;;;5118077;28;20032;-71
2021/07/24 02:32:42;;;;;;;12.70;7.75;;;21.90;82.00;;;;;;5117957;28;20031;-71
2021/07/24 02:35:09;;;;;;;12.25;7.78;;;21.90;81.20;;;;;;5117985;28;20043;-70
2021/07/24 02:37:35;;;;;;;9.65;7.75;;;22.00;80.90;;;;;;5117542;28;20110;-71
2021/07/24 02:40:00;;;;;;;10.02;7.95;;;22.00;81.10;;;;;;5117882;28;20111;-71
2021/07/24 02:42:26;;;;;;;11.82;7.97;;;22.00;81.50;;;;;;5117667;28;20020;-71
2021/07/24 02:44:52;;;;;;;9.93;7.47;;;22.00;81.20;;;;;;5117318;28;20067;-71
2021/07/24 02:47:18;;;;;;;10.18;7.93;;;22.10;81.10;;;;;;5117410;28;20064;-71
2021/07/24 02:49:44;;;;;;;12.18;7.90;;;22.00;81.90;;;;;;5117417;28;20027;-71
2021/07/24 02:52:10;;;;;;;10.18;8.35;;;21.80;82.50;;;;;;5117358;28;20024;-71
2021/07/24 02:54:36;;;;;;;12.55;8.50;;;21.80;83.40;;;;;;5117624;28;20028;-71
2021/07/24 02:57:02;;;;;;;10.45;8.25;;;21.80;82.90;;;;;;5117307;28;20030;-71
2021/07/24 02:59:28;;;;;;;9.35;7.65;;;21.80;82.40;;;;;;5117262;28;20031;-70
2021/07/24 03:01:54;;;;;;;10.75;7.88;;;21.80;81.90;;;;;;5117164;28;20028;-71
2021/07/24 03:04:19;;;;;;;9.50;7.50;;;21.90;82.30;;;;;;5117513;28;20055;-71
2021/07/24 03:06:45;;;;;;;11.88;7.28;;;21.90;82.00;;;;;;5117463;28;20026;-71
2021/07/24 03:09:11;;;;;;;12.07;8.70;;;21.80;82.20;;;;;;5117488;28;20024;-71
2021/07/24 03:11:37;;;;;;;10.18;8.07;;;21.80;83.10;;;;;;5117458;28;20308;-71
2021/07/24 03:14:04;;;;;;;8.68;7.72;;;21.70;83.80;;;;;;5117406;28;20036;-71
2021/07/24 03:16:30;;;;;;;11.95;8.05;;;21.70;83.20;;;;;;5117396;28;20023;-71
2021/07/24 03:18:56;;;;;;;11.10;8.02;;;21.70;81.80;;;;;;5117347;28;20060;-71
2021/07/24 03:21:22;;;;;;;10.30;8.07;;;21.70;81.90;;;;;;5117277;28;20026;-70
2021/07/24 03:23:48;;;;;;;9.75;7.90;;;21.80;81.70;;;;;;5117000;28;20049;-71
2021/07/24 03:26:14;;;;;;;13.35;8.88;;;21.80;81.80;;;;;;5117297;28;20068;-71
2021/07/24 03:28:40;;;;;;;9.32;7.65;;;21.70;82.20;;;;;;5117273;28;20088;-71
2021/07/24 03:31:06;;;;;;;10.07;8.40;;;21.70;82.40;;;;;;5117281;28;20045;-71
2021/07/24 03:33:31;;;;;;;14.88;8.45;;;21.70;82.00;;;;;;5117261;28;20023;-71
2021/07/24 03:35:57;;;;;;;12.38;8.60;;;21.60;82.40;;;;;;5116816;28;20023;-71
2021/07/24 03:38:23;;;;;;;11.30;8.30;;;21.40;84.00;;;;;;5117217;28;20024;-71
2021/07/24 03:40:49;;;;;;;14.18;8.98;;;21.20;84.10;;;;;;5117182;28;20416;-71
2021/07/24 03:43:15;;;;;;;12.32;9.73;;;21.00;84.70;;;;;;5117075;28;20031;-71
2021/07/24 03:45:41;;;;;;;10.90;8.60;;;21.00;84.10;;;;;;5118974;28;20466;-71
2021/07/24 03:48:07;;;;;;;14.70;9.50;;;21.10;84.30;;;;;;5121210;28;20077;-71
2021/07/24 03:50:33;;;;;;;14.07;8.85;;;21.20;83.80;;;;;;5121109;28;20016;-71
2021/07/24 03:53:00;;;;;;;13.50;8.43;;;21.30;84.20;;;;;;5120788;28;20024;-71
2021/07/24 03:55:26;;;;;;;10.73;8.90;;;21.40;83.90;;;;;;5121038;28;20107;-71
2021/07/24 03:57:55;;;;;;;11.55;8.23;;;21.40;84.30;;;;;;5121024;28;20055;-71
2021/07/24 04:00:22;;;;;;;11.38;8.63;;;21.50;83.50;;;;;;5120946;28;20095;-71
2021/07/24 04:02:48;;;;;;;9.77;8.45;;;21.60;83.10;;;;;;5120564;28;20027;-71
2021/07/24 04:05:14;;;;;;;14.48;8.90;;;21.70;83.30;;;;;;5120615;28;20019;-71
2021/07/24 04:07:41;;;;;;;11.00;8.55;;;21.70;82.30;;;;;;5120757;28;20026;-71
2021/07/24 04:10:10;;;;;;;9.23;8.43;;;21.70;82.80;;;;;;5120759;28;20307;-70
2021/07/24 04:12:37;;;;;;;9.75;8.00;;;21.70;82.90;;;;;;5120404;28;20031;-71
2021/07/24 04:15:04;;;;;;;14.82;8.55;;;21.70;82.90;;;;;;5120652;28;20027;-70
2021/07/24 04:17:30;;;;;;;10.13;8.50;;;21.80;82.50;;;;;;5120245;28;20059;-71
2021/07/24 04:19:56;;;;;;;10.60;8.02;;;21.80;82.10;;;;;;5120268;28;20441;-71
2021/07/24 04:22:22;;;;;;;10.93;7.75;;;21.90;82.10;;;;;;5120502;28;20027;-71
2021/07/24 04:24:48;;;;;;;12.20;8.27;;;22.00;81.70;;;;;;5120476;28;20313;-71
2021/07/24 04:27:14;;;;;;;9.93;7.50;;;22.00;81.20;;;;;;5120156;28;20051;-71
2021/07/24 04:29:39;;;;;;;11.65;8.25;;;21.90;82.50;;;;;;5120413;28;20011;-71
2021/07/24 04:32:05;;;;;;;11.88;8.60;;;21.90;82.30;;;;;;5120362;28;20088;-70
2021/07/24 04:34:31;;;;;;;12.77;7.80;;;21.80;82.10;;;;;;5119962;28;20035;-71
2021/07/24 04:36:57;;;;;;;10.98;7.65;;;21.90;81.50;;;;;;5120225;28;20024;-71
2021/07/24 04:39:22;;;;;;;8.05;7.25;;;21.90;82.00;;;;;;5120203;28;20020;-71
2021/07/24 04:41:48;;;;;;;10.55;7.72;;;22.00;81.60;;;;;;5119784;28;20412;-71
2021/07/24 04:44:14;;;;;;;11.90;7.93;;;22.10;81.00;;;;;;5119953;28;20063;-71
2021/07/24 04:46:40;;;;;;;12.50;7.53;;;22.20;80.70;;;;;;5120016;28;20059;-71
2021/07/24 04:49:05;;;;;;;13.43;8.10;;;22.30;80.40;;;;;;5119714;28;20024;-70
2021/07/24 04:51:33;;;;;;;10.20;7.60;;;22.30;80.40;;;;;;5119658;28;20035;-71
2021/07/24 04:53:59;;;;;;;10.38;7.57;;;22.30;81.30;;;;;;5119886;28;20028;-71
2021/07/24 04:56:26;;;;;;;12.25;7.05;;;22.30;81.10;;;;;;5118352;28;20106;-70
2021/07/24 04:58:52;;;;;;;12.02;7.50;;;22.40;81.00;;;;;;5119874;28;20035;-71
2021/07/24 05:01:21;;;;;;;20.38;7.30;;;22.50;80.10;;;;;;5119728;28;20312;-71
2021/07/24 05:03:48;;;;;;;67.38;9.45;;;22.50;80.90;;;;;;5119676;28;20024;-71
2021/07/24 05:06:14;;;;;;;22.20;7.95;;;22.50;81.50;;;;;;5119695;28;20073;-71
2021/07/24 05:08:40;;;;;;;14.88;7.65;;;22.50;81.40;;;;;;5119640;28;20016;-71
2021/07/24 05:11:06;;;;;;;12.45;8.13;;;22.60;81.40;;;;;;5119279;28;20364;-71
2021/07/24 05:13:31;;;;;;;9.50;8.20;;;22.70;80.60;;;;;;5119331;28;20030;-71
2021/07/24 05:15:57;;;;;;;12.32;7.70;;;22.80;80.60;;;;;;5119173;28;20045;-71
2021/07/24 05:18:23;;;;;;;9.80;8.07;;;22.90;80.40;;;;;;5119506;28;20015;-71
2021/07/24 05:20:49;;;;;;;11.23;8.73;;;22.90;81.00;;;;;;5119080;28;20030;-71
2021/07/24 05:23:15;;;;;;;14.57;8.48;;;23.00;80.40;;;;;;5119308;28;20102;-71
2021/07/24 05:25:42;;;;;;;11.73;8.82;;;23.00;81.30;;;;;;5119289;28;20112;-71
2021/07/24 05:28:08;;;;;;;10.10;8.45;;;23.00;80.80;;;;;;5118969;28;20026;-71
2021/07/24 05:30:33;;;;;;;11.63;8.43;;;23.10;79.40;;;;;;5119166;28;20034;-70
2021/07/24 05:32:59;;;;;;;12.90;8.27;;;23.20;79.10;;;;;;5119204;28;20020;-71
2021/07/24 05:35:25;;;;;;;13.57;8.10;;;23.30;79.00;;;;;;5118775;28;20047;-71
2021/07/24 05:40:02;;;;;;;12.18;7.18;;;23.50;79.30;;;;;;4959994;27;1338457;-69
2021/07/24 05:42:28;;;;;;;9.50;8.48;;;23.60;79.70;;;;;;5114572;28;20042;-70
2021/07/24 05:44:53;;;;;;;11.18;7.65;;;23.80;78.80;;;;;;5114844;28;20114;-69
2021/07/24 05:47:19;;;;;;;9.05;7.57;;;23.80;77.90;;;;;;5114521;28;20107;-69
2021/07/24 05:49:45;;;;;;;8.60;7.35;;;23.80;76.90;;;;;;5114356;28;20084;-69
2021/07/24 05:52:11;;;;;;;8.27;7.25;;;23.80;76.00;;;;;;5114807;28;20024;-70
2021/07/24 05:54:38;;;;;;;9.30;8.35;;;23.90;76.80;;;;;;5114686;28;20384;-69
2021/07/24 05:57:05;;;;;;;10.43;6.90;;;24.00;77.00;;;;;;5114633;28;20024;-70
2021/07/24 05:59:31;;;;;;;13.10;7.65;;;24.00;76.90;;;;;;5114469;28;20153;-69
2021/07/24 06:01:57;;;;;;;7.75;6.95;;;24.10;76.10;;;;;;5114579;28;20332;-69
2021/07/24 06:04:23;;;;;;;11.73;7.85;;;24.10;76.50;;;;;;5114503;28;20024;-70
2021/07/24 06:06:48;;;;;;;9.93;7.50;;;24.10;77.30;;;;;;5114454;28;20046;-70
2021/07/24 06:09:14;;;;;;;11.68;7.65;;;24.00;76.90;;;;;;5113968;28;20422;-70
2021/07/24 06:11:40;;;;;;;8.82;7.25;;;23.90;77.10;;;;;;5114413;28;20042;-70
2021/07/24 06:14:05;;;;;;;11.15;7.40;;;23.90;76.90;;;;;;5114274;28;20023;-70
2021/07/24 06:16:31;;;;;;;11.85;8.45;;;24.00;76.70;;;;;;5113906;28;20315;-70
2021/07/24 06:19:00;;;;;;;8.40;7.35;;;24.00;76.90;;;;;;5113781;28;20028;-70
2021/07/24 06:21:26;;;;;;;8.48;7.57;;;24.10;76.10;;;;;;5113876;28;20020;-70
2021/07/24 06:23:51;;;;;;;10.50;7.78;;;24.20;75.70;;;;;;5114114;28;20069;-70
2021/07/24 06:26:17;;;;;;;10.65;7.30;;;24.40;75.00;;;;;;5114091;28;20315;-70
2021/07/24 06:28:42;;;;;;;10.55;7.53;;;24.30;75.60;;;;;;5113653;28;20460;-70
2021/07/24 06:31:08;;;;;;;9.00;7.07;;;24.40;75.60;;;;;;5114052;28;20024;-70
2021/07/24 06:33:34;;;;;;;8.57;7.68;;;24.60;75.10;;;;;;5113950;28;20399;-70
2021/07/24 06:36:00;;;;;;;11.73;7.55;;;24.90;75.10;;;;;;5113924;28;20407;-70
2021/07/24 06:38:26;;;;;;;9.18;7.63;;;25.00;74.00;;;;;;5118938;28;20050;-70
2021/07/24 06:40:52;;;;;;;10.25;7.35;;;25.30;73.70;;;;;;5134010;28;20020;-70
2021/07/24 06:43:18;;;;;;;8.82;7.93;;;25.50;72.30;;;;;;5134016;28;20421;-70
2021/07/24 06:45:44;;;;;;;10.55;7.13;;;25.80;72.10;;;;;;5134202;28;20023;-70
2021/07/24 06:48:09;;;;;;;10.90;6.75;;;26.00;71.10;;;;;;5134095;28;20030;-70
2021/07/24 06:50:35;;;;;;;7.30;6.43;;;26.30;70.10;;;;;;5123544;28;20368;-70
2021/07/24 06:53:01;;;;;;;11.88;7.35;;;26.70;69.10;;;;;;5120130;28;20402;-70
2021/07/24 06:55:27;;;;;;;8.25;6.80;;;27.10;67.80;;;;;;5120287;28;20065;-70
2021/07/24 06:57:53;;;;;;;8.68;6.78;;;27.40;67.60;;;;;;5119913;28;20032;-70
2021/07/24 07:00:19;;;;;;;9.68;6.90;;;27.60;66.40;;;;;;5120145;28;20019;-70
2021/07/24 07:02:44;;;;;;;6.93;6.20;;;28.00;66.50;;;;;;5119926;28;20022;-70
2021/07/24 07:05:10;;;;;;;6.57;5.97;;;28.20;65.60;;;;;;5119854;28;20024;-70
2021/07/24 07:07:36;;;;;;;11.82;6.75;;;28.50;65.20;;;;;;5120070;28;20028;-70
2021/07/24 07:10:06;;;;;;;9.50;6.18;;;28.60;64.90;;;;;;5119988;28;20055;-70
2021/07/24 07:12:31;;;;;;;10.52;6.28;;;28.60;65.30;;;;;;5119785;28;20410;-70
2021/07/24 07:14:59;;;;;;;7.63;6.15;;;28.60;65.50;;;;;;5119924;28;20019;-70
2021/07/24 07:17:24;;;;;;;7.47;6.03;;;28.80;65.00;;;;;;5119820;28;20027;-69
2021/07/24 07:19:50;;;;;;;8.93;6.55;;;29.10;64.20;;;;;;5119477;28;20099;-70
2021/07/24 07:22:16;;;;;;;6.45;5.78;;;29.40;65.30;;;;;;5119550;28;20031;-70
2021/07/24 07:24:42;;;;;;;9.60;5.70;;;29.50;64.70;;;;;;5119445;28;20029;-70
2021/07/24 07:27:08;;;;;;;12.27;6.50;;;29.70;65.20;;;;;;5119423;28;20061;-70
2021/07/24 07:29:33;;;;;;;7.22;6.30;;;29.80;63.80;;;;;;5119276;28;20028;-70
2021/07/24 07:31:59;;;;;;;6.50;5.80;;;30.10;64.00;;;;;;5119715;28;20023;-70
2021/07/24 07:34:24;;;;;;;10.02;5.70;;;30.40;63.60;;;;;;5119609;28;20070;-70
2021/07/24 07:36:50;;;;;;;7.95;6.40;;;30.80;63.80;;;;;;5119254;28;20114;-70
2021/07/24 07:39:16;;;;;;;7.72;5.85;;;30.90;60.50;;;;;;5118957;28;20089;-70
2021/07/24 07:41:41;;;;;;;9.40;6.05;;;30.90;61.20;;;;;;5119216;28;20020;-70
2021/07/24 07:44:07;;;;;;;7.85;6.75;;;31.00;61.60;;;;;;5119389;28;20019;-70
2021/07/24 07:46:33;;;;;;;10.27;6.32;;;30.80;62.40;;;;;;5119057;28;20035;-70
2021/07/24 07:48:59;;;;;;;8.13;6.93;;;30.50;63.10;;;;;;5119277;28;20020;-69
2021/07/24 07:51:25;;;;;;;10.30;6.88;;;30.50;63.20;;;;;;5118947;28;20024;-70
2021/07/24 07:53:50;;;;;;;8.57;6.78;;;30.50;62.60;;;;;;5118957;28;20104;-70
2021/07/24 07:56:16;;;;;;;8.60;6.22;;;30.20;62.90;;;;;;5119139;28;20024;-70
2021/07/24 07:58:42;;;;;;;11.10;6.07;;;30.50;62.90;;;;;;5118681;28;20467;-69
2021/07/24 08:01:11;;;;;;;8.63;5.43;;;30.80;61.90;;;;;;5118244;28;20019;-70
2021/07/24 08:03:38;;;;;;;6.65;5.95;;;31.10;61.80;;;;;;5118700;28;20094;-70
2021/07/24 08:06:04;;;;;;;6.15;5.55;;;31.50;60.90;;;;;;5118962;28;20046;-70
2021/07/24 08:08:29;;;;;;;7.65;5.55;;;31.80;60.20;;;;;;5118773;28;20442;-70
2021/07/24 08:10:55;;;;;;;9.32;6.22;;;32.10;58.50;;;;;;5118861;28;20034;-70
2021/07/24 08:13:21;;;;;;;6.68;6.07;;;32.30;57.10;;;;;;5118890;28;20019;-70
2021/07/24 08:15:48;;;;;;;7.28;6.10;;;31.80;57.80;;;;;;5118492;28;20023;-70
2021/07/24 08:18:14;;;;;;;6.57;5.68;;;31.40;59.70;;;;;;5118557;28;20085;-70
2021/07/24 08:20:41;;;;;;;9.73;6.18;;;31.10;60.50;;;;;;5118622;28;20015;-70
2021/07/24 08:23:13;;;;;;;7.28;5.78;;;31.00;59.60;;;;;;5118360;28;20023;-69
2021/07/24 08:25:39;;;;;;;9.50;6.20;;;31.20;61.00;;;;;;5118286;28;20024;-70
2021/07/24 08:28:05;;;;;;;6.25;5.65;;;31.30;60.10;;;;;;5118464;28;20027;-69
2021/07/24 08:30:31;;;;;;;6.15;5.55;;;31.60;59.90;;;;;;5118166;28;20019;-69
2021/07/24 08:32:58;;;;;;;8.10;6.60;;;31.70;61.50;;;;;;5118480;28;20028;-69
2021/07/24 08:35:24;;;;;;;6.78;5.47;;;31.70;57.60;;;;;;5118067;28;20130;-69
2021/07/24 08:37:50;;;;;;;9.38;6.07;;;31.70;58.40;;;;;;5117686;28;20115;-70
2021/07/24 08:40:16;;;;;;;7.68;6.28;;;31.80;58.60;;;;;;5118236;28;20020;-70
2021/07/24 08:42:42;;;;;;;8.15;6.55;;;32.00;57.70;;;;;;5117986;28;20028;-70
2021/07/24 08:45:13;;;;;;;6.25;5.57;;;32.20;57.00;;;;;;5118200;28;20064;-70
2021/07/24 08:47:39;;;;;;;7.38;5.65;;;32.50;56.50;;;;;;5118205;28;20036;-70
2021/07/24 08:50:07;;;;;;;12.48;6.43;;;32.60;57.30;;;;;;5118050;28;20031;-70
2021/07/24 08:52:34;;;;;;;9.32;5.72;;;32.60;55.80;;;;;;5118084;28;20028;-70
2021/07/24 08:55:01;;;;;;;9.30;6.32;;;32.60;57.60;;;;;;5117683;28;20407;-70
2021/07/24 08:57:35;;;;;;;7.47;6.63;;;32.60;56.50;;;;;;5117573;28;20081;-70
2021/07/24 09:00:05;;;;;;;11.13;6.60;;;32.70;55.50;;;;;;5117621;28;20019;-70
2021/07/24 09:02:35;;;;;;;9.05;6.88;;;32.70;56.00;;;;;;5117656;28;20352;-70
2021/07/24 09:05:05;;;;;;;8.88;6.22;;;32.70;56.30;;;;;;5117868;28;20123;-70
2021/07/24 09:07:33;;;;;;;8.77;6.40;;;32.90;55.40;;;;;;5117795;28;20023;-70
2021/07/24 09:10:00;;;;;;;9.98;6.20;;;32.80;56.40;;;;;;5117721;28;20028;-70
2021/07/24 09:12:29;;;;;;;8.88;6.70;;;33.00;56.40;;;;;;5117245;28;20427;-70
2021/07/24 09:14:58;;;;;;;8.65;6.32;;;33.10;56.10;;;;;;5117357;28;20026;-70
2021/07/24 09:17:24;;;;;;;6.78;6.00;;;33.30;56.10;;;;;;5117402;28;20047;-70
2021/07/24 09:19:51;;;;;;;12.88;6.25;;;33.30;54.90;;;;;;5117515;28;20047;-70
2021/07/24 09:22:28;;;;;;;7.93;5.95;;;33.40;54.80;;;;;;5117654;28;20020;-70
2021/07/24 09:25:16;;;;;;;8.13;6.15;;;33.60;55.90;;;;;;5117597;28;20371;-70
2021/07/24 09:27:52;;;;;;;8.82;6.07;;;33.50;57.10;;;;;;5117332;28;20051;-70
2021/07/24 09:30:24;;;;;;;7.60;5.68;;;33.50;56.40;;;;;;5117252;28;20359;-70
2021/07/24 09:33:03;;;;;;;7.65;6.15;;;33.60;55.20;;;;;;5117303;28;20027;-70
2021/07/24 09:35:36;;;;;;;7.45;6.63;;;33.50;54.10;;;;;;5117173;28;20028;-70
2021/07/24 09:38:03;;;;;;;6.47;5.80;;;33.30;55.80;;;;;;5117038;28;20024;-70
2021/07/24 09:40:29;;;;;;;7.32;6.05;;;33.30;55.80;;;;;;5117466;28;20024;-70
2021/07/24 09:42:55;;;;;;;8.35;6.70;;;33.30;56.10;;;;;;5117124;28;20136;-70
2021/07/24 09:45:20;;;;;;;7.43;6.07;;;33.60;55.30;;;;;;5117324;28;20020;-70
2021/07/24 09:47:47;;;;;;;8.43;6.53;;;33.80;57.20;;;;;;5117333;28;20028;-70
2021/07/24 09:50:16;;;;;;;10.43;6.05;;;33.90;54.90;;;;;;5117293;28;20505;-70
2021/07/24 09:52:53;;;;;;;7.85;6.28;;;34.20;54.40;;;;;;5117062;28;20035;-70
2021/07/24 09:55:25;;;;;;;7.35;6.63;;;34.10;55.20;;;;;;5116936;28;20031;-70
2021/07/24 09:57:52;;;;;;;7.32;6.57;;;34.20;53.30;;;;;;5116932;28;20028;-70
2021/07/24 10:00:24;;;;;;;7.10;6.10;;;34.30;53.60;;;;;;5117178;28;20135;-70
2021/07/24 10:03:01;;;;;;;8.38;6.38;;;34.30;55.10;;;;;;5117222;28;20027;-70
2021/07/24 10:05:34;;;;;;;9.30;6.60;;;34.40;54.00;;;;;;5117245;28;20032;-70
2021/07/24 10:08:14;;;;;;;11.60;6.43;;;34.30;53.50;;;;;;5117230;28;20401;-70
2021/07/24 10:10:42;;;;;;;9.65;7.35;;;34.10;55.80;;;;;;5117162;28;20035;-70
2021/07/24 10:13:12;;;;;;;11.70;7.68;;;34.00;52.70;;;;;;5117158;28;20315;-70
2021/07/24 10:15:40;;;;;;;7.07;6.38;;;33.60;54.60;;;;;;5117105;28;20024;-70
2021/07/24 10:18:07;;;;;;;16.70;7.90;;;33.10;55.30;;;;;;5116197;28;20468;-70
2021/07/24 10:20:54;;;;;;;8.27;7.00;;;32.90;55.60;;;;;;5111175;28;20031;-70
2021/07/24 10:23:26;;;;;;;9.35;6.57;;;32.70;57.50;;;;;;5096681;28;20035;-70
2021/07/24 10:26:09;;;;;;;6.70;5.97;;;32.70;57.40;;;;;;5099303;28;20115;-70
2021/07/24 10:28:39;;;;;;;7.97;6.68;;;32.70;58.20;;;;;;5100416;28;20410;-70
2021/07/24 10:31:12;;;;;;;8.40;7.38;;;33.10;59.10;;;;;;5100400;28;20362;-70
2021/07/24 10:33:38;;;;;;;7.80;6.50;;;33.40;55.50;;;;;;5100369;28;20024;-70
2021/07/24 10:36:40;;;;;;;10.95;6.93;;;33.60;56.50;;;;;;5099957;28;20319;-70
2021/07/24 10:39:11;;;;;;;10.70;6.70;;;33.80;55.10;;;;;;5099719;28;20040;-70
2021/07/24 10:41:38;;;;;;;9.38;6.88;;;33.70;57.10;;;;;;5099942;28;20024;-70
2021/07/24 10:44:30;;;;;;;9.13;7.70;;;33.70;55.20;;;;;;5100112;28;20038;-70
2021/07/24 10:46:58;;;;;;;9.48;6.72;;;32.80;55.70;;;;;;5088782;28;20111;-70
2021/07/24 10:49:33;;;;;;;7.93;6.43;;;33.00;57.90;;;;;;5099969;28;20036;-70
2021/07/24 10:51:59;;;;;;;;;;;33.40;57.20;;;;;;5100185;28;20059;-70
2021/07/24 10:54:29;;;;;;;9.60;6.63;;;33.70;54.70;;;;;;5099659;28;20062;-70
2021/07/24 10:56:55;;;;;;;8.75;6.40;;;33.50;55.50;;;;;;5099928;28;20368;-71
2021/07/24 10:59:21;;;;;;;8.35;7.10;;;33.40;57.60;;;;;;5099698;28;20024;-70
2021/07/24 11:01:51;;;;;;;9.52;7.10;;;33.60;55.60;;;;;;5099858;28;20032;-70
2021/07/24 11:04:38;;;;;;;11.75;6.90;;;33.70;56.10;;;;;;5099460;28;20035;-70
2021/07/24 11:07:12;;;;;;;8.57;6.85;;;33.40;56.90;;;;;;5099376;28;20024;-70
2021/07/24 11:09:39;;;;;;;12.18;7.55;;;33.00;57.40;;;;;;5099819;28;20028;-70
2021/07/24 11:12:15;;;;;;;8.65;6.97;;;32.30;58.00;;;;;;5099370;28;20431;-70
2021/07/24 11:14:50;;;;;;;10.63;7.70;;;32.00;60.90;;;;;;5099622;28;20028;-70
2021/07/24 11:17:20;;;;;;;10.40;6.88;;;32.20;59.30;;;;;;5099525;28;20103;-70
2021/07/24 11:19:51;;;;;;;8.57;7.68;;;32.70;59.20;;;;;;5099046;28;20031;-70
2021/07/24 11:22:29;;;;;;;10.52;7.65;;;32.90;57.10;;;;;;5099206;28;20480;-70
2021/07/24 11:24:58;;;;;;;6.57;5.97;;;32.90;56.90;;;;;;5099443;28;20025;-70
2021/07/24 11:27:26;;;;;;;8.43;7.00;;;32.80;58.30;;;;;;5099286;28;20304;-70
2021/07/24 11:29:53;;;;;;;8.05;6.70;;;32.80;58.20;;;;;;5099236;28;20032;-70
2021/07/24 11:32:31;;;;;;;7.85;7.00;;;32.50;59.60;;;;;;5099273;28;20030;-70
2021/07/24 11:35:05;;;;;;;8.05;6.78;;;32.00;60.00;;;;;;5098900;28;20073;-70
2021/07/24 11:37:43;;;;;;;10.95;6.45;;;31.60;61.40;;;;;;5098868;28;20028;-70
2021/07/24 11:40:21;;;;;;;8.70;7.22;;;31.70;62.10;;;;;;5098648;28;20048;-70
2021/07/24 11:42:58;;;;;;;9.57;6.95;;;31.90;61.70;;;;;;5098760;28;20474;-70
2021/07/24 11:45:23;;;;;;;11.30;7.35;;;31.90;61.10;;;;;;5098953;28;20103;-70
2021/07/24 11:48:04;;;;;;;11.15;8.10;;;32.00;61.20;;;;;;5098976;28;20110;-70
2021/07/24 11:50:29;;;;;;;9.60;7.32;;;31.80;58.90;;;;;;5098913;28;20021;-69
2021/07/24 11:52:55;;;;;;;8.70;7.47;;;32.10;61.50;;;;;;5098852;28;20016;-69
2021/07/24 11:55:28;;;;;;;9.93;7.43;;;32.50;60.90;;;;;;5098806;28;20024;-70
2021/07/24 11:58:05;;;;;;;8.68;7.88;;;32.70;58.00;;;;;;5098345;28;20032;-70
2021/07/24 12:00:38;;;;;;;9.30;7.13;;;32.50;57.00;;;;;;5098371;28;20097;-70
2021/07/24 12:03:27;;;;;;;8.98;7.63;;;32.40;57.80;;;;;;5098705;28;20020;-70
2021/07/24 12:06:09;;;;;;;10.55;7.25;;;32.40;58.30;;;;;;5098647;28;20357;-70
2021/07/24 12:08:36;;;;;;;8.43;6.85;;;32.00;60.80;;;;;;5098571;28;20379;-70
2021/07/24 12:11:02;;;;;;;9.43;7.63;;;31.70;62.90;;;;;;5098462;28;20324;-70
2021/07/24 12:13:29;;;;;;;10.35;7.40;;;31.70;61.70;;;;;;5098487;28;20024;-70
2021/07/24 12:16:05;;;;;;;10.65;7.97;;;31.80;61.80;;;;;;5098400;28;20028;-70
2021/07/24 12:18:57;;;;;;;9.02;7.55;;;32.00;60.50;;;;;;5098214;28;20413;-70
2021/07/24 12:21:31;;;;;;;7.90;7.10;;;31.90;61.60;;;;;;5093216;28;20063;-69
2021/07/24 12:24:02;;;;;;;7.57;6.87;;;31.70;59.90;;;;;;5098289;28;20043;-70
2021/07/24 12:26:33;;;;;;;9.85;7.78;;;31.80;62.90;;;;;;5097897;28;20024;-70
2021/07/24 12:29:01;;;;;;;9.07;7.43;;;31.80;60.80;;;;;;5097787;28;20099;-70
2021/07/24 12:31:33;;;;;;;9.45;7.20;;;31.80;61.40;;;;;;5098103;28;20038;-70
2021/07/24 12:34:01;;;;;;;9.52;8.23;;;31.90;61.30;;;;;;5098083;28;20093;-70
2021/07/24 12:36:29;;;;;;;10.80;8.05;;;32.00;60.40;;;;;;5097975;28;20319;-70
2021/07/24 12:38:58;;;;;;;9.82;7.13;;;32.00;60.20;;;;;;5097427;28;20043;-70
2021/07/24 12:41:34;;;;;;;8.05;7.10;;;32.10;60.00;;;;;;5097902;28;20040;-70
2021/07/24 12:44:04;;;;;;;10.27;7.43;;;32.00;61.00;;;;;;5097584;28;20020;-69
2021/07/24 12:46:30;;;;;;;10.20;7.47;;;32.00;61.90;;;;;;5097567;28;20025;-70
2021/07/24 12:48:58;;;;;;;7.68;6.88;;;32.00;61.50;;;;;;5097214;28;20031;-70
2021/07/24 12:51:37;;;;;;;12.43;7.82;;;32.00;61.00;;;;;;5097665;28;20027;-71